Dowa, Malawi
Current Conditions -  °F | °C
As of 10:00 AM on Wednesday 26 Nov 2014 (Local Time) from FWCL Reporting Station
Broken Clouds Broken Clouds  
Wind Chill: 27°   Ceiling: 2500
Heat Index: 28°   Visibility: 6mi
Dew Point: 18°   Wind: 9mph
Humidity: 58%   Direction: 200°SSW
Pressure: 30.09"   Gusts: NA
Location:  13.65°S, 33.93°E
Report Text: FWCL 260800Z 20008KT 9999 BKN025 BKN080 27/18 Q1019 NOSIG
Loading
Personal Weather Stations






























Interactive Weather Map New forecast layout! Learn more

10-Day Weather Forecast

Advertisements
Track Severe Weather on mobile